createdAt,value
2022-11-13T00:01:21.802Z,7.64
2022-11-13T00:03:50.014Z,7.63
2022-11-13T00:06:19.521Z,7.64
2022-11-13T00:08:48.356Z,7.64
2022-11-13T00:11:19.110Z,7.67
2022-11-13T00:13:47.948Z,7.47
2022-11-13T00:16:19.213Z,7.42
2022-11-13T00:18:47.756Z,7.74
2022-11-13T00:21:17.844Z,7.80
2022-11-13T00:23:46.933Z,7.73
2022-11-13T00:26:16.565Z,7.64
2022-11-13T00:28:45.521Z,7.81
2022-11-13T00:31:15.518Z,7.73
2022-11-13T00:34:09.261Z,7.66
2022-11-13T00:36:35.418Z,7.62
2022-11-13T00:39:03.611Z,7.63
2022-11-13T00:41:31.858Z,7.62
2022-11-13T00:44:00.105Z,7.64
2022-11-13T00:46:28.312Z,7.71
2022-11-13T00:48:57.904Z,7.70
2022-11-13T00:51:26.101Z,7.68
2022-11-13T00:53:54.426Z,6.74
2022-11-13T00:56:22.881Z,7.68
2022-11-13T00:58:51.130Z,7.61
2022-11-13T01:01:20.957Z,7.69
2022-11-13T01:03:49.182Z,7.70
2022-11-13T01:06:21.511Z,7.71
2022-11-13T01:08:49.815Z,7.69
2022-11-13T01:11:21.429Z,7.69
2022-11-13T01:13:51.447Z,7.69
2022-11-13T01:16:24.313Z,6.95
2022-11-13T01:18:54.694Z,7.07
2022-11-13T01:21:26.667Z,7.70
2022-11-13T01:23:55.041Z,7.65
2022-11-13T01:26:25.501Z,7.71
2022-11-13T01:28:53.935Z,7.53
2022-11-13T01:31:23.687Z,7.52
2022-11-13T01:33:51.891Z,7.53
2022-11-13T01:36:22.251Z,7.31
2022-11-13T01:38:52.794Z,7.20
2022-11-13T01:41:23.767Z,7.19
2022-11-13T01:43:52.857Z,7.25
2022-11-13T01:46:29.711Z,6.68
2022-11-13T01:49:03.672Z,7.17
2022-11-13T01:51:34.612Z,7.00
2022-11-13T01:54:08.350Z,7.03
2022-11-13T01:56:37.535Z,6.98
2022-11-13T01:59:10.273Z,6.95
2022-11-13T02:01:38.560Z,6.97
2022-11-13T02:04:06.837Z,7.04
2022-11-13T02:06:41.767Z,6.88
2022-11-13T02:09:11.872Z,6.83
2022-11-13T02:11:40.936Z,6.78
2022-11-13T02:14:10.268Z,6.68
2022-11-13T02:16:41.858Z,6.48
2022-11-13T02:19:16.349Z,6.58
2022-11-13T02:21:54.700Z,6.51
2022-11-13T02:24:30.997Z,6.46
2022-11-13T02:27:04.739Z,6.42
2022-11-13T02:29:33.760Z,6.38
2022-11-13T02:32:02.489Z,6.40
2022-11-13T02:34:31.112Z,6.35
2022-11-13T02:36:59.810Z,6.27
2022-11-13T02:39:30.798Z,6.23
2022-11-13T02:41:59.827Z,6.18
2022-11-13T02:44:28.861Z,6.18
2022-11-13T02:46:57.602Z,6.01
2022-11-13T02:49:26.448Z,6.02
2022-11-13T02:51:55.248Z,5.98
2022-11-13T02:54:24.228Z,5.94
2022-11-13T02:56:54.648Z,5.93
2022-11-13T02:59:23.830Z,5.90
2022-11-13T03:01:52.635Z,5.91
2022-11-13T03:04:21.647Z,5.87
2022-11-13T03:06:50.871Z,5.83
2022-11-13T03:09:19.681Z,5.52
2022-11-13T03:11:48.630Z,5.79
2022-11-13T03:14:18.969Z,5.74
2022-11-13T03:16:48.169Z,5.71
2022-11-13T03:19:16.909Z,5.58
2022-11-13T03:21:46.078Z,4.83
2022-11-13T03:24:15.068Z,5.50
2022-11-13T03:26:45.004Z,5.36
2022-11-13T03:29:14.064Z,5.00
2022-11-13T03:31:44.890Z,5.54
2022-11-13T03:34:15.703Z,5.54
2022-11-13T03:36:46.161Z,5.45
2022-11-13T03:39:16.483Z,5.33
2022-11-13T03:41:47.143Z,4.60
2022-11-13T03:44:17.561Z,5.34
2022-11-13T03:50:15.681Z,5.02
2022-11-13T03:52:46.123Z,5.28
2022-11-13T03:55:16.880Z,5.27
2022-11-13T03:57:47.304Z,5.14
2022-11-13T04:00:19.284Z,5.20
2022-11-13T04:02:49.502Z,4.98
2022-11-13T04:05:22.942Z,5.10
2022-11-13T04:07:54.540Z,5.10
2022-11-13T04:10:25.683Z,5.04
2022-11-13T04:12:56.281Z,5.01
2022-11-13T04:15:29.625Z,4.91
2022-11-13T04:18:30.006Z,4.46
2022-11-13T06:05:30.419Z,4.71
2022-11-13T06:11:54.960Z,5.65
2022-11-13T06:14:23.186Z,5.57
2022-11-13T06:16:51.660Z,5.70
2022-11-13T06:19:19.970Z,5.77
2022-11-13T06:21:49.544Z,5.82
2022-11-13T06:24:17.796Z,5.78
2022-11-13T06:26:46.012Z,5.72
2022-11-13T06:29:15.575Z,5.93
2022-11-13T06:31:43.807Z,5.93
2022-11-13T06:34:12.170Z,5.96
2022-11-13T06:36:40.315Z,5.95
2022-11-13T06:39:11.442Z,6.07
2022-11-13T06:41:40.390Z,6.11
2022-11-13T06:44:08.806Z,6.13
2022-11-13T06:46:36.987Z,5.93
2022-11-13T06:49:05.217Z,6.18
2022-11-13T06:51:33.433Z,6.20
2022-11-13T06:54:01.604Z,5.86
2022-11-13T06:56:31.160Z,6.22
2022-11-13T06:58:59.335Z,6.19
2022-11-13T07:01:28.479Z,6.19
2022-11-13T07:03:56.720Z,6.26
2022-11-13T07:06:26.015Z,6.17
2022-11-13T07:08:54.554Z,6.40
2022-11-13T07:11:24.816Z,6.44
2022-11-13T07:13:54.379Z,6.42
2022-11-13T07:16:22.711Z,6.39
2022-11-13T07:18:53.338Z,6.30
2022-11-13T07:21:22.084Z,6.45
2022-11-13T07:23:51.362Z,6.52
2022-11-13T07:26:20.304Z,6.45
2022-11-13T07:28:49.121Z,6.60
2022-11-13T07:31:19.866Z,6.65
2022-11-13T07:33:51.309Z,6.68
2022-11-13T07:36:19.580Z,6.59
2022-11-13T07:38:47.799Z,6.81
2022-11-13T07:41:15.989Z,7.02
2022-11-13T07:43:44.216Z,7.09
2022-11-13T07:46:12.399Z,7.05
2022-11-13T07:48:42.053Z,7.02
2022-11-13T07:51:10.355Z,7.23
2022-11-13T07:53:39.162Z,7.32
2022-11-13T07:56:08.416Z,7.32
2022-11-13T07:58:36.771Z,7.24
2022-11-13T08:01:06.529Z,7.34
2022-11-13T08:03:34.813Z,7.53
2022-11-13T08:06:06.573Z,7.69
2022-11-13T08:08:36.044Z,7.84
2022-11-13T08:11:08.997Z,7.70
2022-11-13T08:13:38.182Z,8.18
2022-11-13T08:16:06.865Z,8.29
2022-11-13T08:18:35.150Z,8.63
2022-11-13T08:21:10.459Z,8.79
2022-11-13T08:23:42.854Z,8.93
2022-11-13T08:26:11.779Z,9.08
2022-11-13T08:28:40.197Z,8.67
2022-11-13T08:31:12.575Z,9.19
2022-11-13T08:33:40.941Z,9.16
2022-11-13T08:36:11.830Z,9.36
2022-11-13T08:38:40.028Z,9.51
2022-11-13T08:41:09.658Z,9.66
2022-11-13T08:43:38.100Z,9.80
2022-11-13T08:46:06.380Z,9.94
2022-11-13T08:48:35.183Z,9.89
2022-11-13T08:51:03.338Z,10.11
2022-11-13T08:53:32.921Z,10.08
2022-11-13T08:56:02.659Z,10.19
2022-11-13T08:58:31.057Z,10.15
2022-11-13T09:01:01.823Z,10.29
2022-11-13T09:03:30.008Z,10.31
2022-11-13T09:05:58.176Z,10.27
2022-11-13T09:08:26.691Z,10.21
2022-11-13T09:10:56.516Z,10.47
2022-11-13T09:13:24.725Z,10.64
2022-11-13T09:15:52.840Z,10.79
2022-11-13T09:18:20.960Z,10.80
2022-11-13T09:20:49.169Z,10.92
2022-11-13T09:23:17.493Z,11.01
2022-11-13T09:25:45.779Z,11.10
2022-11-13T09:28:15.473Z,11.25
2022-11-13T09:30:43.938Z,10.73
2022-11-13T09:33:15.996Z,11.27
2022-11-13T09:35:44.862Z,11.29
2022-11-13T09:38:14.851Z,11.44
2022-11-13T09:40:47.428Z,11.35
2022-11-13T09:43:29.790Z,10.85
2022-11-13T09:46:01.149Z,11.56
2022-11-13T09:48:34.398Z,11.84
2022-11-13T09:51:07.711Z,11.95
2022-11-13T09:53:40.291Z,12.11
2022-11-13T09:56:20.191Z,12.18
2022-11-13T09:58:53.284Z,12.16
2022-11-13T10:01:30.706Z,12.08
2022-11-13T10:04:04.565Z,11.48
2022-11-13T10:06:51.928Z,12.21
2022-11-13T10:09:30.654Z,12.26
2022-11-13T10:12:03.884Z,12.31
2022-11-13T10:14:37.811Z,12.35
2022-11-13T10:17:15.369Z,12.39
2022-11-13T10:19:52.418Z,12.37
2022-11-13T10:22:32.865Z,12.13
2022-11-13T10:25:10.853Z,12.44
2022-11-13T10:27:39.481Z,12.46
2022-11-13T10:30:15.920Z,12.56
2022-11-13T10:32:45.643Z,12.58
2022-11-13T10:35:36.531Z,12.05
2022-11-13T10:38:08.852Z,12.52
2022-11-13T10:40:38.904Z,12.25
2022-11-13T10:43:14.561Z,12.37
2022-11-13T10:45:44.866Z,12.39
2022-11-13T10:48:23.736Z,12.40
2022-11-13T10:50:57.356Z,12.55
2022-11-13T10:53:28.126Z,12.64
2022-11-13T10:55:59.208Z,12.75
2022-11-13T10:58:27.936Z,12.90
2022-11-13T11:00:57.723Z,12.85
2022-11-13T11:03:27.277Z,13.12
2022-11-13T11:05:58.126Z,13.23
2022-11-13T11:08:32.274Z,12.80
2022-11-13T11:11:19.954Z,11.93
2022-11-13T11:13:49.520Z,11.62
2022-11-13T11:16:25.081Z,12.09
2022-11-13T11:18:59.697Z,12.10
2022-11-13T11:21:32.297Z,12.16
2022-11-13T11:24:08.712Z,12.32
2022-11-13T11:26:42.593Z,12.56
2022-11-13T11:29:19.042Z,12.82
2022-11-13T11:31:54.446Z,12.57
2022-11-13T11:34:30.262Z,12.92
2022-11-13T11:37:04.398Z,12.62
2022-11-13T11:39:38.135Z,12.94
2022-11-13T11:42:19.874Z,12.84
2022-11-13T11:44:59.407Z,12.87
2022-11-13T11:47:29.552Z,12.75
2022-11-13T11:49:57.968Z,13.44
2022-11-13T11:52:44.311Z,13.60
2022-11-13T11:55:27.609Z,13.70
2022-11-13T11:58:01.488Z,13.71
2022-11-13T12:00:32.821Z,13.65
2022-11-13T12:03:30.670Z,14.00
2022-11-13T12:06:09.381Z,13.96
2022-11-13T12:08:46.203Z,14.02
2022-11-13T12:11:23.147Z,14.08
2022-11-13T12:14:01.341Z,14.15
2022-11-13T12:16:37.187Z,13.49
2022-11-13T12:19:18.133Z,14.11
2022-11-13T12:21:57.462Z,14.46
2022-11-13T12:24:49.728Z,14.47
2022-11-13T12:27:28.913Z,14.29
2022-11-13T12:30:12.094Z,13.99
2022-11-13T12:33:08.536Z,13.98
2022-11-13T12:35:39.707Z,13.94
2022-11-13T12:38:19.996Z,13.90
2022-11-13T12:40:56.330Z,13.49
2022-11-13T12:43:40.607Z,13.68
2022-11-13T12:46:10.679Z,13.63
2022-11-13T12:48:40.862Z,13.85
2022-11-13T12:51:12.160Z,14.44
2022-11-13T12:53:48.993Z,14.66
2022-11-13T12:56:33.096Z,14.85
2022-11-13T12:59:29.359Z,14.75
2022-11-13T13:02:04.162Z,14.81
2022-11-13T13:04:55.644Z,15.08
2022-11-13T13:07:43.186Z,15.60
2022-11-13T13:10:18.390Z,16.34
2022-11-13T13:12:56.473Z,17.50
2022-11-13T13:15:32.876Z,19.02
2022-11-13T13:18:12.364Z,20.64
2022-11-13T13:20:42.054Z,21.15
2022-11-13T13:23:15.216Z,21.28
2022-11-13T13:25:43.424Z,21.44
2022-11-13T13:28:21.717Z,20.70
2022-11-13T13:31:03.503Z,21.06
2022-11-13T13:33:43.189Z,22.10
2022-11-13T13:36:22.268Z,22.61
2022-11-13T13:38:58.106Z,22.03
2022-11-13T13:41:36.894Z,21.79
2022-11-13T13:44:40.959Z,21.07
2022-11-13T13:47:16.049Z,19.52
2022-11-13T13:49:44.648Z,19.32
2022-11-13T13:52:16.199Z,19.24
2022-11-13T13:54:47.197Z,19.92
2022-11-13T13:57:17.694Z,19.67
2022-11-13T13:59:46.109Z,18.61
2022-11-13T14:02:17.721Z,17.15
2022-11-13T14:04:47.545Z,15.74
2022-11-13T14:07:25.888Z,14.33
2022-11-13T14:10:10.145Z,13.03
2022-11-13T14:12:43.831Z,12.71
2022-11-13T14:15:24.089Z,12.52
2022-11-13T14:17:52.474Z,12.27
2022-11-13T14:20:22.046Z,11.17
2022-11-13T14:22:56.422Z,11.83
2022-11-13T14:25:28.875Z,11.79
2022-11-13T14:27:57.260Z,11.73
2022-11-13T14:30:27.630Z,11.29
2022-11-13T14:32:56.745Z,11.56
2022-11-13T14:35:27.830Z,11.50
2022-11-13T14:37:57.267Z,11.13
2022-11-13T14:40:28.585Z,11.18
2022-11-13T14:43:00.904Z,11.22
2022-11-13T14:45:30.988Z,11.15
2022-11-13T14:48:01.328Z,10.96
2022-11-13T14:50:32.398Z,10.99
2022-11-13T14:53:02.879Z,10.97
2022-11-13T14:55:34.561Z,10.76
2022-11-13T14:58:02.719Z,10.75
2022-11-13T15:00:33.991Z,10.52
2022-11-13T15:03:03.304Z,10.54
2022-11-13T15:05:31.831Z,10.49
2022-11-13T15:08:01.080Z,10.25
2022-11-13T15:10:32.575Z,10.11
2022-11-13T15:13:00.794Z,9.84
2022-11-13T15:15:31.427Z,9.77
2022-11-13T15:17:59.742Z,9.90
2022-11-13T15:20:29.870Z,9.07
2022-11-13T15:22:59.875Z,9.80
2022-11-13T15:25:28.319Z,9.35
2022-11-13T15:27:57.965Z,9.56
2022-11-13T15:30:26.256Z,9.37
2022-11-13T15:32:54.870Z,9.30
2022-11-13T15:35:23.267Z,9.21
2022-11-13T15:37:51.394Z,9.19
2022-11-13T15:40:19.800Z,9.10
2022-11-13T15:42:48.410Z,8.97
2022-11-13T15:45:18.383Z,9.00
2022-11-13T15:47:46.637Z,8.96
2022-11-13T15:50:16.107Z,8.83
2022-11-13T15:52:47.361Z,8.81
2022-11-13T15:55:27.247Z,8.77
2022-11-13T15:57:56.494Z,8.72
2022-11-13T16:00:28.279Z,8.61
2022-11-13T16:02:57.694Z,7.80
2022-11-13T16:05:29.534Z,8.55
2022-11-13T16:07:58.265Z,8.49
2022-11-13T16:10:26.999Z,8.44
2022-11-13T16:12:55.610Z,8.39
2022-11-13T16:15:25.272Z,8.26
2022-11-13T16:17:58.195Z,8.37
2022-11-13T16:20:26.553Z,8.23
2022-11-13T16:22:55.200Z,8.28
2022-11-13T16:25:24.099Z,8.31
2022-11-13T16:27:52.995Z,8.23
2022-11-13T16:30:24.980Z,8.29
2022-11-13T16:32:55.355Z,8.14
2022-11-13T16:35:23.500Z,7.95
2022-11-13T16:37:51.695Z,8.03
2022-11-13T16:40:22.860Z,7.90
2022-11-13T16:42:51.849Z,7.97
2022-11-13T16:45:20.961Z,7.99
2022-11-13T16:47:50.696Z,7.25
2022-11-13T16:50:23.704Z,7.91
2022-11-13T16:52:52.809Z,7.88
2022-11-13T16:55:21.054Z,7.76
2022-11-13T16:57:49.513Z,7.33
2022-11-13T17:00:19.533Z,7.78
2022-11-13T17:02:50.409Z,7.71
2022-11-13T17:05:18.895Z,7.56
2022-11-13T17:07:50.911Z,7.65
2022-11-13T17:10:36.094Z,7.67
2022-11-13T17:13:04.485Z,7.51
2022-11-13T17:15:33.005Z,7.61
2022-11-13T17:18:01.223Z,7.07
2022-11-13T17:20:29.457Z,7.65
2022-11-13T17:22:58.982Z,7.56
2022-11-13T17:25:28.283Z,7.53
2022-11-13T17:27:56.657Z,7.16
2022-11-13T17:30:25.023Z,7.45
2022-11-13T17:32:53.213Z,7.24
2022-11-13T17:35:21.482Z,7.48
2022-11-13T17:37:49.647Z,7.22
2022-11-13T17:40:19.526Z,7.41
2022-11-13T17:42:49.638Z,7.39
2022-11-13T17:45:17.930Z,7.40
2022-11-13T17:47:46.178Z,7.36
2022-11-13T17:50:15.273Z,7.39
2022-11-13T17:52:43.632Z,7.35
2022-11-13T17:55:13.252Z,7.32
2022-11-13T17:57:42.941Z,7.14
2022-11-13T18:00:12.352Z,7.28
2022-11-13T18:02:40.806Z,7.28
2022-11-13T18:05:10.161Z,6.89
2022-11-13T18:07:40.207Z,7.23
2022-11-13T18:10:11.081Z,7.46
2022-11-13T18:12:39.342Z,7.48
2022-11-13T18:15:09.707Z,6.74
2022-11-13T18:17:37.852Z,7.57
2022-11-13T18:20:06.865Z,7.64
2022-11-13T18:22:35.111Z,7.42
2022-11-13T18:25:03.468Z,7.66
2022-11-13T18:27:32.259Z,7.74
2022-11-13T18:30:00.470Z,7.66
2022-11-13T18:32:30.163Z,7.82
2022-11-13T18:34:58.515Z,7.81
2022-11-13T18:37:26.758Z,7.93
2022-11-13T18:39:55.346Z,7.89
2022-11-13T18:42:23.769Z,7.99
2022-11-13T18:44:55.129Z,7.91
2022-11-13T18:47:24.169Z,8.08
2022-11-13T18:49:54.149Z,8.07
2022-11-13T18:52:23.182Z,8.04
2022-11-13T18:54:51.869Z,7.98
2022-11-13T18:57:20.847Z,7.45
2022-11-13T18:59:49.038Z,8.05
2022-11-13T19:02:17.346Z,7.61
2022-11-13T19:04:45.915Z,8.06
2022-11-13T19:07:15.717Z,8.10
2022-11-13T19:09:46.124Z,8.08
2022-11-13T19:12:14.425Z,8.10
2022-11-13T19:14:42.770Z,8.16
2022-11-13T19:17:11.151Z,8.19
2022-11-13T19:19:41.862Z,8.08
2022-11-13T19:22:10.374Z,7.46
2022-11-13T19:24:40.109Z,8.19
2022-11-13T19:27:08.482Z,8.21
2022-11-13T19:29:37.861Z,8.09
2022-11-13T19:32:07.905Z,8.25
2022-11-13T19:34:36.885Z,8.27
2022-11-13T19:37:05.420Z,8.10
2022-11-13T19:39:33.676Z,8.22
2022-11-13T19:42:03.362Z,8.33
2022-11-13T19:44:31.827Z,8.33
2022-11-13T19:47:00.192Z,8.36
2022-11-13T19:49:28.443Z,8.41
2022-11-13T19:51:57.070Z,8.34
2022-11-13T19:54:25.295Z,8.22
2022-11-13T19:56:53.544Z,8.10
2022-11-13T19:59:23.202Z,8.27
2022-11-13T20:01:51.610Z,8.28
2022-11-13T20:04:19.873Z,8.28
2022-11-13T20:06:48.083Z,8.34
2022-11-13T20:09:16.272Z,8.43
2022-11-13T20:11:45.352Z,8.24
2022-11-13T20:14:13.768Z,8.35
2022-11-13T20:16:43.474Z,8.24
2022-11-13T20:19:13.055Z,7.57
2022-11-13T20:21:41.349Z,8.35
2022-11-13T20:24:11.604Z,8.46
2022-11-13T20:26:39.792Z,8.41
2022-11-13T20:29:08.034Z,8.23
2022-11-13T20:31:36.258Z,8.35
2022-11-13T20:34:06.093Z,8.36
2022-11-13T20:36:34.750Z,8.20
2022-11-13T20:39:08.128Z,8.38
2022-11-13T20:41:38.070Z,8.38
2022-11-13T20:44:06.747Z,8.36
2022-11-13T20:46:35.067Z,8.36
2022-11-13T20:49:03.426Z,8.37
2022-11-13T20:51:33.094Z,8.40
2022-11-13T20:54:01.604Z,8.47
2022-11-13T20:56:29.806Z,8.48
2022-11-13T20:58:58.041Z,8.48
2022-11-13T21:01:27.344Z,8.52
2022-11-13T21:03:56.173Z,8.33
2022-11-13T21:06:26.083Z,8.43
2022-11-13T21:08:56.574Z,8.46
2022-11-13T21:12:10.981Z,8.23
2022-11-13T21:14:39.438Z,6.61
2022-11-13T21:17:07.617Z,8.46
2022-11-13T21:19:35.814Z,8.49
2022-11-13T21:22:04.568Z,8.42
2022-11-13T21:24:34.160Z,8.54
2022-11-13T21:27:02.437Z,8.54
2022-11-13T21:29:30.800Z,8.58
2022-11-13T21:31:59.026Z,8.23
2022-11-13T21:34:27.234Z,8.58
2022-11-13T21:36:55.393Z,8.42
2022-11-13T21:39:24.417Z,8.48
2022-11-13T21:41:54.719Z,8.56
2022-11-13T21:44:23.147Z,8.56
2022-11-13T21:46:51.388Z,8.27
2022-11-13T21:49:19.636Z,8.57
2022-11-13T21:51:48.858Z,8.58
2022-11-13T21:54:17.150Z,8.57
2022-11-13T21:56:45.278Z,8.48
2022-11-13T21:59:15.432Z,8.61
2022-11-13T22:01:43.691Z,8.74
2022-11-13T22:04:12.410Z,8.72
2022-11-13T22:06:40.717Z,8.51
2022-11-13T22:09:14.949Z,7.65
2022-11-13T22:11:43.309Z,8.18
2022-11-13T22:14:12.032Z,8.37
2022-11-13T22:16:43.498Z,8.28
2022-11-13T22:19:14.068Z,8.37
2022-11-13T22:21:43.142Z,8.44
2022-11-13T22:24:11.819Z,8.27
2022-11-13T22:26:41.849Z,7.90
2022-11-13T22:29:10.522Z,7.86
2022-11-13T22:31:39.515Z,8.08
2022-11-13T22:34:09.263Z,8.44
2022-11-13T22:36:38.768Z,8.46
2022-11-13T22:39:07.353Z,8.47
2022-11-13T22:41:36.909Z,8.52
2022-11-13T22:44:08.163Z,8.29
2022-11-13T22:46:37.496Z,8.51
2022-11-13T22:49:07.175Z,8.53
2022-11-13T22:51:38.772Z,8.54
2022-11-13T22:54:09.487Z,8.47
2022-11-13T22:56:38.802Z,8.54
2022-11-13T22:59:09.277Z,8.51
2022-11-13T23:01:39.517Z,8.50
2022-11-13T23:04:13.314Z,7.07
2022-11-13T23:06:43.125Z,8.48
2022-11-13T23:09:11.818Z,8.62
2022-11-13T23:11:42.412Z,8.55
2022-11-13T23:14:13.244Z,8.53
2022-11-13T23:16:41.503Z,8.55
2022-11-13T23:19:10.275Z,8.56
2022-11-13T23:21:38.567Z,8.55
2022-11-13T23:24:10.971Z,8.57
2022-11-13T23:26:39.359Z,8.48
2022-11-13T23:29:07.719Z,8.30
2022-11-13T23:31:35.906Z,8.58
2022-11-13T23:34:04.289Z,8.55
2022-11-13T23:36:32.450Z,8.55
2022-11-13T23:39:00.714Z,8.51
2022-11-13T23:41:30.366Z,8.49
2022-11-13T23:44:14.077Z,7.84
2022-11-13T23:46:42.288Z,8.50
2022-11-13T23:49:10.505Z,8.54
2022-11-13T23:51:38.744Z,8.55
2022-11-13T23:54:06.954Z,8.66
2022-11-13T23:56:36.656Z,8.60
2022-11-13T23:59:04.868Z,8.56
